createdAt,value
2023-04-18T00:00:53.035Z,0.00
2023-04-18T00:01:53.141Z,0.00
2023-04-18T00:02:53.431Z,0.00
2023-04-18T00:03:53.384Z,0.00
2023-04-18T00:04:53.325Z,0.00
2023-04-18T00:05:53.329Z,0.00
2023-04-18T00:06:53.402Z,0.00
2023-04-18T00:07:53.460Z,15.00
2023-04-18T00:08:53.532Z,25.00
2023-04-18T00:09:53.551Z,25.00
2023-04-18T00:10:53.654Z,26.22
2023-04-18T00:11:53.604Z,25.00
2023-04-18T00:12:53.646Z,25.00
2023-04-18T00:13:53.680Z,25.32
2023-04-18T00:14:53.706Z,25.57
2023-04-18T00:15:53.757Z,25.00
2023-04-18T00:16:53.881Z,25.00
2023-04-18T00:17:53.894Z,26.99
2023-04-18T00:18:53.939Z,25.19
2023-04-18T00:19:53.994Z,25.67
2023-04-18T00:20:54.102Z,25.94
2023-04-18T00:21:54.128Z,26.82
2023-04-18T00:22:54.190Z,26.26
2023-04-18T00:23:54.243Z,25.50
2023-04-18T00:24:54.279Z,27.09
2023-04-18T00:25:54.332Z,25.08
2023-04-18T00:26:54.415Z,25.24
2023-04-18T00:27:54.448Z,27.25
2023-04-18T00:28:54.504Z,27.66
2023-04-18T00:29:54.573Z,28.48
2023-04-18T00:30:54.701Z,25.62
2023-04-18T00:31:54.685Z,25.00
2023-04-18T00:32:54.775Z,26.38
2023-04-18T00:33:54.755Z,25.57
2023-04-18T00:34:54.758Z,25.00
2023-04-18T00:35:54.769Z,26.20
2023-04-18T00:36:54.794Z,26.11
2023-04-18T00:37:54.818Z,26.13
2023-04-18T00:38:54.866Z,26.23
2023-04-18T00:39:54.872Z,26.41
2023-04-18T00:40:54.917Z,26.98
2023-04-18T00:41:54.971Z,27.43
2023-04-18T00:42:55.052Z,28.51
2023-04-18T00:43:55.099Z,26.38
2023-04-18T00:44:55.161Z,25.00
2023-04-18T00:45:55.229Z,26.23
2023-04-18T00:46:55.276Z,27.02
2023-04-18T00:47:55.377Z,26.39
2023-04-18T00:48:55.372Z,25.47
2023-04-18T00:49:55.411Z,27.49
2023-04-18T00:50:55.452Z,26.08
2023-04-18T00:51:55.486Z,25.32
2023-04-18T00:52:55.554Z,26.82
2023-04-18T00:53:55.605Z,27.05
2023-04-18T00:54:55.708Z,25.95
2023-04-18T00:55:55.718Z,27.26
2023-04-18T00:56:55.779Z,26.96
2023-04-18T00:57:55.821Z,26.49
2023-04-18T00:58:56.014Z,25.26
2023-04-18T00:59:55.900Z,27.06
2023-04-18T01:00:55.955Z,28.25
2023-04-18T01:01:56.108Z,28.12
2023-04-18T01:02:56.229Z,27.38
2023-04-18T01:03:56.186Z,27.23
2023-04-18T01:04:56.171Z,25.84
2023-04-18T01:05:56.195Z,27.27
2023-04-18T01:06:56.230Z,28.70
2023-04-18T01:07:56.254Z,26.35
2023-04-18T01:08:56.288Z,26.37
2023-04-18T01:09:56.340Z,28.72
2023-04-18T01:10:56.369Z,28.32
2023-04-18T01:11:56.425Z,26.90
2023-04-18T01:12:56.506Z,27.33
2023-04-18T01:13:56.552Z,25.54
2023-04-18T01:14:56.631Z,25.00
2023-04-18T01:15:56.725Z,29.50
2023-04-18T01:16:56.750Z,30.91
2023-04-18T01:17:56.853Z,27.85
2023-04-18T01:18:56.897Z,30.67
2023-04-18T01:19:57.333Z,30.27
2023-04-18T01:20:57.329Z,29.42
2023-04-18T01:21:57.374Z,29.81
2023-04-18T01:22:57.342Z,28.98
2023-04-18T01:23:57.330Z,26.16
2023-04-18T01:24:57.335Z,25.00
2023-04-18T01:25:57.338Z,27.63
2023-04-18T01:26:57.338Z,25.00
2023-04-18T01:27:57.380Z,30.85
2023-04-18T01:28:58.335Z,28.31
2023-04-18T01:29:57.477Z,29.70
2023-04-18T01:30:57.621Z,25.95
2023-04-18T01:31:57.592Z,29.39
2023-04-18T01:32:57.668Z,27.21
2023-04-18T01:33:57.684Z,26.80
2023-04-18T01:34:57.754Z,31.88
2023-04-18T01:35:57.793Z,27.01
2023-04-18T01:36:57.835Z,30.07
2023-04-18T01:37:57.848Z,27.54
2023-04-18T01:38:57.866Z,28.46
2023-04-18T01:39:57.894Z,27.58
2023-04-18T01:40:58.303Z,28.06
2023-04-18T01:41:58.343Z,26.89
2023-04-18T01:42:58.341Z,25.40
2023-04-18T01:43:58.346Z,25.29
2023-04-18T01:44:58.348Z,29.30
2023-04-18T01:45:58.392Z,30.76
2023-04-18T01:46:58.470Z,28.67
2023-04-18T01:47:58.369Z,28.17
2023-04-18T01:48:58.356Z,27.31
2023-04-18T01:49:58.350Z,25.58
2023-04-18T01:50:58.393Z,28.81
2023-04-18T01:51:58.435Z,27.96
2023-04-18T01:52:58.487Z,27.54
2023-04-18T01:53:58.552Z,27.64
2023-04-18T01:54:58.586Z,26.47
2023-04-18T01:55:59.058Z,26.60
2023-04-18T01:56:58.685Z,28.15
2023-04-18T01:57:58.744Z,29.06
2023-04-18T01:58:58.786Z,28.06
2023-04-18T01:59:58.856Z,30.42
2023-04-18T02:00:58.964Z,29.62
2023-04-18T02:01:59.628Z,30.54
2023-04-18T02:02:59.222Z,29.95
2023-04-18T02:03:59.284Z,27.06
2023-04-18T02:04:59.126Z,30.48
2023-04-18T02:05:59.191Z,28.22
2023-04-18T02:06:59.192Z,28.17
2023-04-18T02:07:59.230Z,26.70
2023-04-18T02:08:59.289Z,29.07
2023-04-18T02:09:59.329Z,28.01
2023-04-18T02:10:59.368Z,28.43
2023-04-18T02:11:59.403Z,26.39
2023-04-18T02:12:59.442Z,29.02
2023-04-18T02:13:59.518Z,28.27
2023-04-18T02:14:59.509Z,28.78
2023-04-18T02:15:59.577Z,28.05
2023-04-18T02:16:59.543Z,26.63
2023-04-18T02:17:59.557Z,29.95
2023-04-18T02:18:59.581Z,27.16
2023-04-18T02:19:59.594Z,30.18
2023-04-18T02:20:59.637Z,27.59
2023-04-18T02:21:59.666Z,25.37
2023-04-18T02:23:00.568Z,28.90
2023-04-18T02:23:59.699Z,31.51
2023-04-18T02:24:59.712Z,30.72
2023-04-18T02:25:59.738Z,29.42
2023-04-18T02:27:00.067Z,29.31
2023-04-18T02:27:59.829Z,30.70
2023-04-18T02:29:00.562Z,29.74
2023-04-18T02:29:59.933Z,27.91
2023-04-18T02:30:59.930Z,30.68
2023-04-18T02:31:59.996Z,29.99
2023-04-18T02:32:59.994Z,28.76
2023-04-18T02:33:59.989Z,30.73
2023-04-18T02:35:00.066Z,25.68
2023-04-18T02:35:59.994Z,26.70
2023-04-18T02:37:00.004Z,26.73
2023-04-18T02:38:00.042Z,28.70
2023-04-18T02:39:00.079Z,28.04
2023-04-18T02:40:00.132Z,33.39
2023-04-18T02:41:00.171Z,28.04
2023-04-18T02:42:00.214Z,27.74
2023-04-18T02:43:00.236Z,30.73
2023-04-18T02:44:00.274Z,27.74
2023-04-18T02:45:00.335Z,28.20
2023-04-18T02:46:00.484Z,28.06
2023-04-18T02:47:00.419Z,27.42
2023-04-18T02:48:00.626Z,32.15
2023-04-18T02:49:00.503Z,30.24
2023-04-18T02:50:00.542Z,29.97
2023-04-18T02:51:00.610Z,28.78
2023-04-18T02:52:00.622Z,28.42
2023-04-18T02:53:00.673Z,28.57
2023-04-18T02:54:00.721Z,29.04
2023-04-18T02:55:00.760Z,31.46
2023-04-18T02:56:00.818Z,28.51
2023-04-18T02:57:00.864Z,25.00
2023-04-18T02:58:00.914Z,26.52
2023-04-18T02:59:00.976Z,28.27
2023-04-18T03:00:01.014Z,28.79
2023-04-18T03:01:01.118Z,29.42
2023-04-18T03:02:01.147Z,26.03
2023-04-18T03:03:01.284Z,26.40
2023-04-18T03:04:02.079Z,26.97
2023-04-18T03:05:01.276Z,28.44
2023-04-18T03:06:01.269Z,30.18
2023-04-18T03:07:01.294Z,28.26
2023-04-18T03:08:01.293Z,26.20
2023-04-18T03:09:01.322Z,31.33
2023-04-18T03:10:01.369Z,29.44
2023-04-18T03:11:02.075Z,29.17
2023-04-18T03:12:01.414Z,29.03
2023-04-18T03:13:01.487Z,28.14
2023-04-18T03:14:01.493Z,28.98
2023-04-18T03:15:01.524Z,30.31
2023-04-18T03:16:01.612Z,28.31
2023-04-18T03:17:01.634Z,26.96
2023-04-18T03:18:01.829Z,28.84
2023-04-18T03:19:01.739Z,29.85
2023-04-18T03:20:02.581Z,27.24
2023-04-18T03:21:02.578Z,28.33
2023-04-18T03:22:01.893Z,29.25
2023-04-18T03:23:01.952Z,27.53
2023-04-18T03:24:02.578Z,28.27
2023-04-18T03:25:02.578Z,29.94
2023-04-18T03:26:01.933Z,25.17
2023-04-18T03:27:01.977Z,26.18
2023-04-18T03:28:01.998Z,29.94
2023-04-18T03:29:02.076Z,26.47
2023-04-18T03:30:02.053Z,28.01
2023-04-18T03:31:02.149Z,28.97
2023-04-18T03:32:02.122Z,31.70
2023-04-18T03:33:02.178Z,26.09
2023-04-18T03:34:02.186Z,27.04
2023-04-18T03:35:02.212Z,28.38
2023-04-18T03:36:02.271Z,27.47
2023-04-18T03:37:02.329Z,28.93
2023-04-18T03:38:02.374Z,29.79
2023-04-18T03:39:02.582Z,28.11
2023-04-18T03:40:02.467Z,27.81
2023-04-18T03:41:02.517Z,27.22
2023-04-18T03:42:02.605Z,28.56
2023-04-18T03:43:02.645Z,27.39
2023-04-18T03:44:02.703Z,27.93
2023-04-18T03:45:02.747Z,30.83
2023-04-18T03:46:02.974Z,28.59
2023-04-18T03:47:02.836Z,27.81
2023-04-18T03:48:02.940Z,27.27
2023-04-18T03:49:02.876Z,29.65
2023-04-18T03:50:02.913Z,29.35
2023-04-18T03:51:02.944Z,29.65
2023-04-18T03:52:02.998Z,26.90
2023-04-18T03:53:03.418Z,26.62
2023-04-18T03:54:03.434Z,26.01
2023-04-18T03:55:03.464Z,29.63
2023-04-18T03:56:03.428Z,27.36
2023-04-18T03:57:03.426Z,26.07
2023-04-18T03:58:03.428Z,28.65
2023-04-18T03:59:03.454Z,26.70
2023-04-18T04:00:03.429Z,26.69
2023-04-18T04:01:03.484Z,28.05
2023-04-18T04:02:03.645Z,28.34
2023-04-18T04:03:03.757Z,28.69
2023-04-18T04:04:03.623Z,27.21
2023-04-18T04:05:03.640Z,26.04
2023-04-18T04:06:03.612Z,29.51
2023-04-18T04:07:03.629Z,26.95
2023-04-18T04:08:03.646Z,30.34
2023-04-18T04:09:03.664Z,26.69
2023-04-18T04:10:03.702Z,29.60
2023-04-18T04:11:03.749Z,30.66
2023-04-18T04:12:03.726Z,28.94
2023-04-18T04:13:03.768Z,29.19
2023-04-18T04:14:03.799Z,28.20
2023-04-18T04:15:03.840Z,29.84
2023-04-18T04:16:03.907Z,29.88
2023-04-18T04:17:03.932Z,26.75
2023-04-18T04:18:04.011Z,30.17
2023-04-18T04:19:04.437Z,26.46
2023-04-18T04:20:04.446Z,27.92
2023-04-18T04:21:04.440Z,27.47
2023-04-18T04:22:04.454Z,28.24
2023-04-18T04:23:04.438Z,30.31
2023-04-18T04:24:04.435Z,29.30
2023-04-18T04:25:04.477Z,28.71
2023-04-18T04:26:04.452Z,31.26
2023-04-18T04:27:04.459Z,29.16
2023-04-18T04:28:04.450Z,28.01
2023-04-18T04:29:04.449Z,27.17
2023-04-18T04:30:04.446Z,26.38
2023-04-18T04:31:04.445Z,28.01
2023-04-18T04:32:04.577Z,27.59
2023-04-18T04:33:04.531Z,28.19
2023-04-18T04:34:04.516Z,30.33
2023-04-18T04:35:04.550Z,32.32
2023-04-18T04:36:04.555Z,29.29
2023-04-18T04:37:04.621Z,25.48
2023-04-18T04:38:04.678Z,28.27
2023-04-18T04:39:04.717Z,29.11
2023-04-18T04:40:04.755Z,27.71
2023-04-18T04:41:04.815Z,29.02
2023-04-18T04:42:04.866Z,28.07
2023-04-18T04:43:05.045Z,28.99
2023-04-18T04:44:05.003Z,28.61
2023-04-18T04:45:05.032Z,28.94
2023-04-18T04:46:05.059Z,28.96
2023-04-18T04:47:05.082Z,31.09
2023-04-18T04:48:05.149Z,29.25
2023-04-18T04:49:05.165Z,27.75
2023-04-18T04:50:05.191Z,28.62
2023-04-18T04:51:05.226Z,28.60
2023-04-18T04:52:05.281Z,29.87
2023-04-18T04:53:05.341Z,30.29
2023-04-18T04:54:05.419Z,28.50
2023-04-18T04:55:05.451Z,30.68
2023-04-18T04:56:05.500Z,28.16
2023-04-18T04:57:05.537Z,29.89
2023-04-18T04:58:05.593Z,25.68
2023-04-18T04:59:05.650Z,27.08
2023-04-18T05:00:05.699Z,28.07
2023-04-18T05:01:05.752Z,30.30
2023-04-18T05:02:05.846Z,28.18
2023-04-18T05:03:05.898Z,29.03
2023-04-18T05:04:05.972Z,28.78
2023-04-18T05:05:05.929Z,30.69
2023-04-18T05:06:05.960Z,29.79
2023-04-18T05:07:05.976Z,27.50
2023-04-18T05:08:05.976Z,27.33
2023-04-18T05:09:05.969Z,29.38
2023-04-18T05:10:05.996Z,28.84
2023-04-18T05:11:06.023Z,27.53
2023-04-18T05:12:06.042Z,29.05
2023-04-18T05:13:06.045Z,28.15
2023-04-18T05:14:06.050Z,28.77
2023-04-18T05:15:06.106Z,26.46
2023-04-18T05:16:06.099Z,28.54
2023-04-18T05:17:06.228Z,30.86
2023-04-18T05:18:06.665Z,29.25
2023-04-18T05:19:06.146Z,25.71
2023-04-18T05:20:06.162Z,30.84
2023-04-18T05:21:06.173Z,29.11
2023-04-18T05:22:06.201Z,32.25
2023-04-18T05:23:06.205Z,31.48
2023-04-18T05:24:06.221Z,31.88
2023-04-18T05:25:06.280Z,29.75
2023-04-18T05:26:06.631Z,31.64
2023-04-18T05:27:07.126Z,31.54
2023-04-18T05:28:06.284Z,31.59
2023-04-18T05:29:06.281Z,34.52
2023-04-18T05:30:06.329Z,32.49
2023-04-18T05:31:06.409Z,33.83
2023-04-18T05:32:06.272Z,34.19
2023-04-18T05:33:06.673Z,34.79
2023-04-18T05:34:07.145Z,30.01
2023-04-18T05:35:06.284Z,32.77
2023-04-18T05:36:06.640Z,31.50
2023-04-18T05:37:06.233Z,29.83
2023-04-18T05:38:06.634Z,30.84
2023-04-18T05:39:06.240Z,35.37
2023-04-18T05:40:06.637Z,31.35
2023-04-18T05:41:06.228Z,31.30
2023-04-18T05:42:06.218Z,31.09
2023-04-18T05:43:06.236Z,32.86
2023-04-18T05:44:06.634Z,34.55
2023-04-18T05:45:06.252Z,31.94
2023-04-18T05:46:06.244Z,31.80
2023-04-18T05:47:06.274Z,31.05
2023-04-18T05:48:06.680Z,32.30
2023-04-18T05:49:06.654Z,32.64
2023-04-18T05:50:06.642Z,32.38
2023-04-18T05:51:06.346Z,32.23
2023-04-18T05:52:06.368Z,32.57
2023-04-18T05:53:06.393Z,35.27
2023-04-18T05:54:06.645Z,35.42
2023-04-18T05:55:06.407Z,33.95
2023-04-18T05:56:06.407Z,31.57
2023-04-18T05:57:06.437Z,34.18
2023-04-18T05:58:07.175Z,35.28
2023-04-18T05:59:06.479Z,33.23
2023-04-18T06:00:06.671Z,34.83
2023-04-18T06:01:06.506Z,31.63
2023-04-18T06:02:06.570Z,35.51
2023-04-18T06:03:09.202Z,33.17
2023-04-18T06:04:07.267Z,33.48
2023-04-18T06:05:06.714Z,33.86
2023-04-18T06:06:06.572Z,34.35
2023-04-18T06:07:06.570Z,36.15
2023-04-18T06:08:06.649Z,33.55
2023-04-18T06:09:06.587Z,35.44
2023-04-18T06:10:06.661Z,35.34
2023-04-18T06:11:06.577Z,37.63
2023-04-18T06:12:06.593Z,33.47
2023-04-18T06:13:06.795Z,35.02
2023-04-18T06:14:06.999Z,36.84
2023-04-18T06:15:07.092Z,34.93
2023-04-18T06:16:06.820Z,34.70
2023-04-18T06:17:08.249Z,35.02
2023-04-18T06:18:07.268Z,37.96
2023-04-18T06:19:07.572Z,37.51
2023-04-18T06:20:08.152Z,35.66
2023-04-18T06:21:07.478Z,38.42
2023-04-18T06:22:07.639Z,38.73
2023-04-18T06:23:07.671Z,35.77
2023-04-18T06:24:07.932Z,39.77
2023-04-18T06:25:08.092Z,38.55
2023-04-18T06:26:07.969Z,37.90
2023-04-18T06:27:14.918Z,36.82
2023-04-18T06:28:07.681Z,37.19
2023-04-18T06:29:07.799Z,38.33
2023-04-18T06:30:07.986Z,39.72
2023-04-18T06:31:07.854Z,41.09
2023-04-18T06:32:08.131Z,41.71
2023-04-18T06:33:07.836Z,41.68
2023-04-18T06:34:08.010Z,41.87
2023-04-18T06:35:07.689Z,41.10
2023-04-18T06:36:07.172Z,42.95
2023-04-18T06:37:07.153Z,39.84
2023-04-18T06:38:07.236Z,40.09
2023-04-18T06:39:07.106Z,43.95
2023-04-18T06:40:07.104Z,41.09
2023-04-18T06:41:07.095Z,39.73
2023-04-18T06:42:07.130Z,41.29
2023-04-18T06:43:07.207Z,40.40
2023-04-18T06:44:07.167Z,38.76
2023-04-18T06:45:07.191Z,40.31
2023-04-18T06:46:07.259Z,39.78
2023-04-18T06:47:07.712Z,40.88
2023-04-18T06:48:07.339Z,41.37
2023-04-18T06:49:08.351Z,39.87
2023-04-18T06:50:07.681Z,40.27
2023-04-18T06:51:07.696Z,43.18
2023-04-18T06:52:07.700Z,44.26
2023-04-18T06:53:07.526Z,42.98
2023-04-18T06:54:07.604Z,43.02
2023-04-18T06:55:07.671Z,39.18
2023-04-18T06:56:07.692Z,45.44
2023-04-18T06:57:07.697Z,40.08
2023-04-18T06:58:07.735Z,39.55
2023-04-18T06:59:08.166Z,44.06
2023-04-18T07:00:08.198Z,42.37
2023-04-18T07:01:07.900Z,43.52
2023-04-18T07:02:07.935Z,44.74
2023-04-18T07:03:10.832Z,43.00
2023-04-18T07:04:08.265Z,43.25
2023-04-18T07:05:07.995Z,43.53
2023-04-18T07:06:07.937Z,44.24
2023-04-18T07:07:07.990Z,44.23
2023-04-18T07:08:07.919Z,48.51
2023-04-18T07:09:08.172Z,47.25
2023-04-18T07:10:07.921Z,43.25
2023-04-18T07:11:07.925Z,46.45
2023-04-18T07:12:07.911Z,44.71
2023-04-18T07:13:07.907Z,45.40
2023-04-18T07:14:08.165Z,43.97
2023-04-18T07:15:07.906Z,43.82
2023-04-18T07:16:07.902Z,45.11
2023-04-18T07:17:10.760Z,45.28
2023-04-18T07:18:07.908Z,49.57
2023-04-18T07:19:08.874Z,49.06
2023-04-18T07:20:08.200Z,50.67
2023-04-18T07:21:08.125Z,47.91
2023-04-18T07:22:07.856Z,51.33
2023-04-18T07:23:10.771Z,48.51
2023-04-18T07:24:08.170Z,48.63
2023-04-18T07:25:07.827Z,48.30
2023-04-18T07:26:07.823Z,49.72
2023-04-18T07:27:07.809Z,48.64
2023-04-18T07:28:11.385Z,50.50
2023-04-18T07:29:08.196Z,48.87
2023-04-18T07:30:07.795Z,49.41
2023-04-18T07:31:07.825Z,49.40
2023-04-18T07:32:08.641Z,48.83
2023-04-18T07:33:08.173Z,52.04
2023-04-18T07:34:08.673Z,46.56
2023-04-18T07:35:07.760Z,51.06
2023-04-18T07:36:07.751Z,49.80
2023-04-18T07:37:07.790Z,52.04
2023-04-18T07:38:08.779Z,52.67
2023-04-18T07:39:08.647Z,53.80
2023-04-18T07:40:08.203Z,54.69
2023-04-18T07:41:08.714Z,51.89
2023-04-18T07:42:07.800Z,49.16
2023-04-18T07:43:07.792Z,52.26
2023-04-18T07:44:08.683Z,48.52
2023-04-18T07:45:11.125Z,55.59
2023-04-18T07:46:07.946Z,55.69
2023-04-18T07:47:07.895Z,54.66
2023-04-18T07:48:07.948Z,54.22
2023-04-18T07:49:08.210Z,52.53
2023-04-18T07:50:07.886Z,55.12
2023-04-18T07:51:08.187Z,56.12
2023-04-18T07:52:07.922Z,54.31
2023-04-18T07:53:07.855Z,53.42
2023-04-18T07:54:08.206Z,53.32
2023-04-18T07:55:08.907Z,51.54
2023-04-18T07:56:08.562Z,54.64
2023-04-18T07:57:08.817Z,55.98
2023-04-18T07:58:07.811Z,48.12
2023-04-18T07:59:07.804Z,55.01
2023-04-18T08:00:10.695Z,53.07
2023-04-18T08:01:08.571Z,53.24
2023-04-18T08:02:07.857Z,53.54
2023-04-18T08:03:08.042Z,54.93
2023-04-18T08:04:07.970Z,53.71
2023-04-18T08:05:08.115Z,55.16
2023-04-18T08:06:08.563Z,54.65
2023-04-18T08:07:07.723Z,53.27
2023-04-18T08:08:07.721Z,54.89
2023-04-18T08:09:08.566Z,55.68
2023-04-18T08:10:08.572Z,54.36
2023-04-18T08:11:07.699Z,55.03
2023-04-18T08:12:08.565Z,58.08
2023-04-18T08:13:08.566Z,56.36
2023-04-18T08:14:08.575Z,55.23
2023-04-18T08:15:08.584Z,56.94
2023-04-18T08:16:07.899Z,59.23
2023-04-18T08:17:10.696Z,55.08
2023-04-18T08:18:10.687Z,63.04
2023-04-18T08:19:08.630Z,63.15
2023-04-18T08:20:08.583Z,63.27
2023-04-18T08:21:08.714Z,60.37
2023-04-18T08:22:07.827Z,61.75
2023-04-18T08:23:11.308Z,61.86
2023-04-18T08:24:07.790Z,63.35
2023-04-18T08:25:07.776Z,63.87
2023-04-18T08:26:08.572Z,63.13
2023-04-18T08:27:07.849Z,63.42
2023-04-18T08:28:07.978Z,62.35
2023-04-18T08:29:07.921Z,62.27
2023-04-18T08:30:09.699Z,60.23
2023-04-18T08:31:07.723Z,63.70
2023-04-18T08:32:10.784Z,64.97
2023-04-18T08:33:08.615Z,65.20
2023-04-18T08:34:07.685Z,65.64
2023-04-18T08:35:07.710Z,65.50
2023-04-18T08:36:07.670Z,65.24
2023-04-18T08:37:07.649Z,62.17
2023-04-18T08:38:07.663Z,64.00
2023-04-18T08:39:07.658Z,64.01
2023-04-18T08:40:07.777Z,60.30
2023-04-18T08:41:07.608Z,63.78
2023-04-18T08:42:07.652Z,61.82
2023-04-18T08:43:07.934Z,64.71
2023-04-18T08:44:08.734Z,62.56
2023-04-18T08:45:08.593Z,50.34
2023-04-18T08:46:08.725Z,62.35
2023-04-18T08:47:08.711Z,57.57
2023-04-18T08:48:10.748Z,59.13
2023-04-18T08:49:09.650Z,66.32
2023-04-18T08:50:08.592Z,66.71
2023-04-18T08:51:08.701Z,66.22
2023-04-18T08:52:07.920Z,65.44
2023-04-18T08:53:07.937Z,61.18
2023-04-18T08:54:09.734Z,62.20
2023-04-18T08:55:07.908Z,60.07
2023-04-18T08:56:07.947Z,67.81
2023-04-18T08:57:07.876Z,67.31
2023-04-18T08:58:09.729Z,58.33
2023-04-18T08:59:08.660Z,58.75
2023-04-18T09:00:14.712Z,58.67
2023-04-18T09:01:07.900Z,59.02
2023-04-18T09:02:07.860Z,59.93
2023-04-18T09:03:08.766Z,61.69
2023-04-18T09:04:07.786Z,64.25
2023-04-18T09:05:07.754Z,66.40
2023-04-18T09:06:07.813Z,66.27
2023-04-18T09:07:07.727Z,66.90
2023-04-18T09:08:08.229Z,64.44
2023-04-18T09:09:07.702Z,62.18
2023-04-18T09:10:10.723Z,61.31
2023-04-18T09:11:07.720Z,65.35
2023-04-18T09:12:07.706Z,66.10
2023-04-18T09:13:07.708Z,62.84
2023-04-18T09:14:07.693Z,64.87
2023-04-18T09:15:08.296Z,57.79
2023-04-18T09:16:10.252Z,64.46
2023-04-18T09:17:07.746Z,64.62
2023-04-18T09:18:07.746Z,65.50
2023-04-18T09:19:08.171Z,64.60
2023-04-18T09:20:07.626Z,67.37
2023-04-18T09:21:07.716Z,67.74
2023-04-18T09:22:08.231Z,65.56
2023-04-18T09:23:07.593Z,66.70
2023-04-18T09:24:10.676Z,67.42
2023-04-18T09:25:07.720Z,67.60
2023-04-18T09:26:22.615Z,68.03
2023-04-18T09:27:25.926Z,25.00
2023-04-18T09:28:27.026Z,25.00
2023-04-18T09:29:26.719Z,25.00
2023-04-18T09:30:26.743Z,25.00
2023-04-18T09:31:26.705Z,25.00
2023-04-18T09:32:27.179Z,25.30
2023-04-18T09:33:26.924Z,28.35
2023-04-18T09:34:26.717Z,28.67
2023-04-18T09:35:29.437Z,27.15
2023-04-18T09:36:27.015Z,27.32
2023-04-18T09:37:26.648Z,27.42
2023-04-18T09:38:26.623Z,22.89
2023-04-18T09:39:26.620Z,25.93
2023-04-18T09:40:26.951Z,25.51
2023-04-18T09:41:26.822Z,21.75
2023-04-18T09:42:28.768Z,31.81
2023-04-18T09:43:26.624Z,31.05
2023-04-18T09:44:27.738Z,35.51
2023-04-18T09:45:26.649Z,33.72
2023-04-18T09:46:27.072Z,37.85
2023-04-18T09:47:26.990Z,35.15
2023-04-18T09:48:26.622Z,35.88
2023-04-18T09:49:26.625Z,27.57
2023-04-18T09:50:26.623Z,32.32
2023-04-18T09:51:26.957Z,30.10
2023-04-18T09:52:26.701Z,32.11
2023-04-18T09:53:26.769Z,30.68
2023-04-18T09:54:27.627Z,30.52
2023-04-18T09:55:26.931Z,28.20
2023-04-18T09:56:26.938Z,24.99
2023-04-18T09:57:26.985Z,31.99
2023-04-18T09:58:27.044Z,34.54
2023-04-18T09:59:27.100Z,35.59
2023-04-18T10:00:27.652Z,35.05
2023-04-18T10:01:27.323Z,29.40
2023-04-18T10:02:27.965Z,31.23
2023-04-18T10:03:27.717Z,37.38
2023-04-18T10:04:27.671Z,35.89
2023-04-18T10:05:28.027Z,35.62
2023-04-18T10:06:27.636Z,37.33
2023-04-18T10:07:27.758Z,30.72
2023-04-18T10:08:27.636Z,34.37
2023-04-18T10:09:28.645Z,32.18
2023-04-18T10:10:27.946Z,30.34
2023-04-18T10:11:27.760Z,35.59
2023-04-18T10:12:27.821Z,28.04
2023-04-18T10:13:28.018Z,32.02
2023-04-18T10:14:28.551Z,31.61
2023-04-18T10:15:28.072Z,33.78
2023-04-18T10:16:28.101Z,33.54
2023-04-18T10:17:29.666Z,33.42
2023-04-18T10:18:28.528Z,31.23
2023-04-18T10:19:28.501Z,31.43
2023-04-18T10:20:28.059Z,31.77
2023-04-18T10:21:28.070Z,31.83
2023-04-18T10:22:28.042Z,30.59
2023-04-18T10:23:28.539Z,31.10
2023-04-18T10:24:28.452Z,29.79
2023-04-18T10:25:28.052Z,34.60
2023-04-18T10:26:28.434Z,33.19
2023-04-18T10:27:28.148Z,36.25
2023-04-18T10:28:28.667Z,34.43
2023-04-18T10:29:28.223Z,32.78
2023-04-18T10:30:28.276Z,31.76
2023-04-18T10:31:28.630Z,32.41
2023-04-18T10:32:28.428Z,37.34
2023-04-18T10:33:31.968Z,35.37
2023-04-18T10:34:28.457Z,35.73
2023-04-18T10:35:28.426Z,35.56
2023-04-18T10:36:28.905Z,36.60
2023-04-18T10:37:28.603Z,31.94
2023-04-18T10:38:28.404Z,31.70
2023-04-18T10:39:28.390Z,32.66
2023-04-18T10:40:28.426Z,35.14
2023-04-18T10:41:28.942Z,35.09
2023-04-18T10:42:28.971Z,37.27
2023-04-18T10:43:28.552Z,34.04
2023-04-18T10:44:28.690Z,34.97
2023-04-18T10:45:28.642Z,37.97
2023-04-18T10:46:32.458Z,33.90
2023-04-18T10:47:28.983Z,34.37
2023-04-18T10:48:28.662Z,35.16
2023-04-18T10:49:31.158Z,34.43
2023-04-18T10:50:28.727Z,34.37
2023-04-18T10:51:28.944Z,35.03
2023-04-18T10:52:28.660Z,35.96
2023-04-18T10:53:28.717Z,36.22
2023-04-18T10:54:28.968Z,35.09
2023-04-18T10:55:31.661Z,38.63
2023-04-18T10:56:28.947Z,38.83
2023-04-18T10:57:28.580Z,35.45
2023-04-18T10:58:28.546Z,38.65
2023-04-18T10:59:28.551Z,38.93
2023-04-18T11:00:28.519Z,39.18
2023-04-18T11:01:32.141Z,32.78
2023-04-18T11:02:28.733Z,33.13
2023-04-18T11:03:28.638Z,33.69
2023-04-18T11:04:28.584Z,31.49
2023-04-18T11:05:28.492Z,36.31
2023-04-18T11:06:29.115Z,35.37
2023-04-18T11:07:30.035Z,32.90
2023-04-18T11:08:28.631Z,35.17
2023-04-18T11:09:28.979Z,37.38
2023-04-18T11:10:31.450Z,36.35
2023-04-18T11:11:28.958Z,41.03
2023-04-18T11:12:31.472Z,43.98
2023-04-18T11:13:28.671Z,44.06
2023-04-18T11:14:28.656Z,38.70
2023-04-18T11:15:30.858Z,40.50
2023-04-18T11:16:29.515Z,36.38
2023-04-18T11:17:31.838Z,41.64
2023-04-18T11:18:28.607Z,44.00
2023-04-18T11:19:28.622Z,39.07
2023-04-18T11:20:29.488Z,32.55
2023-04-18T11:21:30.448Z,42.05
2023-04-18T11:22:28.636Z,37.37
2023-04-18T11:23:28.594Z,44.23
2023-04-18T11:24:28.494Z,41.14
2023-04-18T11:25:28.494Z,37.80
2023-04-18T11:26:28.468Z,33.34
2023-04-18T11:27:28.467Z,31.96
2023-04-18T11:28:28.447Z,37.69
2023-04-18T11:29:28.414Z,37.79
2023-04-18T11:30:28.409Z,34.02
2023-04-18T11:31:28.448Z,32.54
2023-04-18T11:32:28.547Z,36.50
2023-04-18T11:33:28.494Z,39.66
2023-04-18T11:34:28.373Z,39.49
2023-04-18T11:35:28.434Z,37.18
2023-04-18T11:36:28.965Z,35.23
2023-04-18T11:37:28.969Z,28.95
2023-04-18T11:38:29.035Z,29.14
2023-04-18T11:39:30.970Z,37.98
2023-04-18T11:40:28.649Z,38.11
2023-04-18T11:41:28.276Z,34.01
2023-04-18T11:42:28.268Z,37.54
2023-04-18T11:43:28.970Z,34.02
2023-04-18T11:44:28.236Z,33.66
2023-04-18T11:45:28.968Z,40.82
2023-04-18T11:46:28.283Z,41.36
2023-04-18T11:47:29.999Z,40.13
2023-04-18T11:48:30.968Z,39.24
2023-04-18T11:49:28.176Z,39.63
2023-04-18T11:50:28.171Z,40.14
2023-04-18T11:51:28.145Z,40.32
2023-04-18T11:52:28.700Z,40.89
2023-04-18T11:53:28.130Z,45.05
2023-04-18T11:54:31.034Z,41.21
2023-04-18T11:55:28.095Z,41.59
2023-04-18T11:56:28.090Z,41.00
2023-04-18T11:57:28.702Z,42.98
2023-04-18T11:58:28.061Z,42.88
2023-04-18T11:59:28.046Z,41.23
2023-04-18T12:00:28.034Z,38.51
2023-04-18T12:01:28.063Z,45.63
2023-04-18T12:02:28.604Z,44.41
2023-04-18T12:03:28.121Z,33.35
2023-04-18T12:04:28.287Z,38.52
2023-04-18T12:05:28.180Z,40.38
2023-04-18T12:06:28.000Z,41.16
2023-04-18T12:07:27.973Z,43.88
2023-04-18T12:08:27.949Z,40.88
2023-04-18T12:09:27.953Z,46.57
2023-04-18T12:10:28.965Z,44.83
2023-04-18T12:11:27.926Z,44.07
2023-04-18T12:12:27.976Z,41.81
2023-04-18T12:13:29.079Z,39.86
2023-04-18T12:14:28.068Z,44.58
2023-04-18T12:15:28.128Z,45.77
2023-04-18T12:16:28.345Z,38.69
2023-04-18T12:17:28.501Z,40.04
2023-04-18T12:18:28.478Z,43.10
2023-04-18T12:19:28.677Z,44.38
2023-04-18T12:20:28.715Z,43.54
2023-04-18T12:21:28.709Z,40.63
2023-04-18T12:22:29.009Z,38.37
2023-04-18T12:23:28.981Z,41.62
2023-04-18T12:24:28.715Z,36.64
2023-04-18T12:25:28.712Z,43.39
2023-04-18T12:26:28.746Z,41.77
2023-04-18T12:27:29.731Z,40.09
2023-04-18T12:28:28.738Z,41.74
2023-04-18T12:29:28.774Z,40.32
2023-04-18T12:30:28.826Z,44.66
2023-04-18T12:31:28.955Z,39.02
2023-04-18T12:32:28.998Z,39.26
2023-04-18T12:33:28.986Z,40.86
2023-04-18T12:34:29.026Z,33.90
2023-04-18T12:35:29.520Z,44.94
2023-04-18T12:36:29.121Z,41.80
2023-04-18T12:37:29.480Z,37.74
2023-04-18T12:38:29.490Z,36.68
2023-04-18T12:39:29.204Z,41.78
2023-04-18T12:40:29.310Z,36.72
2023-04-18T12:41:29.338Z,36.69
2023-04-18T12:42:30.013Z,40.25
2023-04-18T12:43:29.376Z,37.32
2023-04-18T12:44:29.434Z,38.86
2023-04-18T12:45:29.460Z,39.74
2023-04-18T12:46:29.568Z,41.67
2023-04-18T12:47:30.021Z,38.95
2023-04-18T12:48:29.992Z,38.78
2023-04-18T12:49:29.621Z,39.60
2023-04-18T12:50:29.661Z,34.89
2023-04-18T12:51:29.704Z,39.34
2023-04-18T12:52:29.748Z,44.32
2023-04-18T12:53:30.772Z,36.21